Flight Track Log - Related Links

Times and Time Zones

All times are in EDT time to prevent confusion due to time zone crossing. See the EJA646 flight status page for this flight to view local times or setup timezone preferences in your user account.

Time Position Orientation Groundspeed Altitude Reporting Facility
EDT Latitude Longitude Course Direction KTS MPH feet Rate Location/Type
Fri 01:38:47 PM 38.2317 -85.7733 101° East 254 292 4,800  Level Indianapolis Center
Fri 01:39:49 PM 38.2967 -85.7722 North 239 275 9,400 3,532 Climbing Indianapolis Center
Fri 01:40:51 PM 38.3111 -85.6794 79° East 291 335 12,100 2,613 Climbing Indianapolis Center
Fri 01:41:53 PM 38.2453 -85.5972 136° Southeast 330 380 14,800 2,613 Climbing Indianapolis Center
Fri 01:42:55 PM 38.1672 -85.5158 70° East 356 410 17,500 2,419 Climbing Indianapolis Center
Fri 01:43:00 PM 38.2859 -85.4546 70° East  Level Estimated
Fri 01:43:57 PM 38.0944 -85.4206 134° Southeast 375 432 19,800  Level Indianapolis Center
Fri 01:44:00 PM 38.0303 -84.9960 101° East  Level FlightAware Approximate
Fri 01:44:59 PM 38.0731 -85.2925 102° East 372 428 21,700  Level Indianapolis Center
Fri 01:46:01 PM 38.0511 -85.1311 100° East 397 457 23,800 1,902 Climbing Indianapolis Center
Fri 01:47:02 PM 38.0333 -84.9881 99° East 408 470 25,600 1,756 Climbing Indianapolis Center
Fri 01:48:04 PM 38.0139 -84.8425 100° East 415 478 27,400 1,742 Climbing Indianapolis Center
Fri 01:49:06 PM 37.9944 -84.6964 100° East 419 482 29,200 1,597 Climbing Indianapolis Center
Fri 01:50:08 PM 37.9758 -84.5494 99° East 420 483 30,700 1,597 Climbing Indianapolis Center
Fri 01:51:10 PM 37.9631 -84.3750 95° East 426 490 32,500 1,403 Climbing Indianapolis Center
Fri 01:52:12 PM 37.9561 -84.2250 93° East 426 490 33,600 1,016 Climbing Indianapolis Center
Fri 01:53:14 PM 37.9492 -84.0717 93° East 433 498 34,600 1,016 Climbing Indianapolis Center
Fri 01:54:16 PM 37.9419 -83.9153 93° East 442 509 35,700 968 Climbing Indianapolis Center
Fri 01:55:18 PM 37.9356 -83.7578 93° East 445 512 36,600 823 Climbing Indianapolis Center
Fri 01:56:20 PM 37.9281 -83.5994 93° East 447 514 37,400 823 Climbing Indianapolis Center
Fri 01:57:22 PM 37.9183 -83.4172 94° East 444 511 38,300 823 Climbing Indianapolis Center
Fri 01:58:24 PM 37.9203 -83.2611 89° East 442 509 39,100 774 Climbing Indianapolis Center
Fri 01:59:26 PM 37.9261 -83.1053 87° East 440 506 39,900 726 Climbing Indianapolis Center
Fri 02:00:28 PM 37.9319 -82.9547 87° East 429 494 40,600 532 Climbing Indianapolis Center
Fri 02:01:30 PM 37.9375 -82.8042 87° East 427 491 41,000 194 Climbing Indianapolis Center
Fri 02:02:32 PM 37.9439 -82.6531 87° East 428 493 41,000  Level Indianapolis Center
Fri 02:03:34 PM 37.9497 -82.4711 88° East 438 504 41,000  Level Indianapolis Center
Fri 02:04:36 PM 37.9547 -82.3142 88° East 444 511 41,000  Level Indianapolis Center
Fri 02:05:38 PM 37.9594 -82.1553 88° East 448 516 41,000  Level Indianapolis Center
Fri 02:06:40 PM 37.9656 -81.9869 87° East 453 521 41,000  Level Indianapolis Center
Fri 02:07:42 PM 37.9694 -81.8278 88° East 455 524 41,000  Level Indianapolis Center
Fri 02:08:44 PM 37.9736 -81.6697 88° East 452 520 41,000  Level Indianapolis Center
Fri 02:09:46 PM 37.9781 -81.5158 88° East 444 511 41,000  Level Indianapolis Center
Fri 02:10:48 PM 37.9808 -81.3606 89° East 443 510 41,000  Level Indianapolis Center
Fri 02:11:50 PM 37.9842 -81.2050 88° East 443 510 41,000  Level Indianapolis Center
Fri 02:12:52 PM 37.9886 -81.0181 88° East 444 511 41,000  Level Indianapolis Center
Fri 02:13:54 PM 37.9919 -80.8619 88° East 445 512 41,000  Level Indianapolis Center
Fri 02:14:56 PM 37.9942 -80.7056 89° East 446 513 41,000  Level Indianapolis Center
Fri 02:15:58 PM 37.9972 -80.5500 89° East 444 511 41,000  Level Indianapolis Center
Fri 02:16:26 PM 37.9986 -80.4800 89° East 437 503 41,000  Level Washington Center
Fri 02:17:27 PM 38.0014 -80.3089 89° East 445 512 41,000  Level Washington Center
Fri 02:18:28 PM 38.0053 -80.1536 88° East 440 506 41,000  Level Washington Center
Fri 02:19:29 PM 38.0069 -79.9983 89° East 440 506 41,000  Level Washington Center
Fri 02:20:26 PM 38.0083 -79.8403 89° East 440 506 41,000  Level Washington Center
Fri 02:21:29 PM 38.0111 -79.6981 89° East 440 506 41,000  Level Washington Center
Fri 02:22:27 PM 38.0122 -79.5425 89° East 440 506 41,000 -51 Level Washington Center
Fri 02:23:27 PM 37.9817 -79.3908 104° East 440 506 40,900 -446 Descending Washington Center
Fri 02:24:28 PM 37.9406 -79.2439 109° East 436 502 40,100 -454 Descending Washington Center
Fri 02:25:26 PM 37.9031 -79.0972 108° East 442 509 40,000 -50 Descending Washington Center
Fri 02:26:27 PM 37.8675 -78.9589 108° East 436 502 40,000  Level Washington Center
Fri 02:27:27 PM 37.8300 -78.8047 107° East 418 481 40,000  Level Washington Center
Fri 02:28:26 PM 37.7919 -78.6586 108° East 418 481 40,000  Level Washington Center
Fri 02:29:27 PM 37.7539 -78.5125 108° East 428 493 40,000  Level Washington Center
Fri 02:30:27 PM 37.7367 -78.3594 98° East 434 499 40,000  Level Washington Center
Fri 02:31:28 PM 37.7939 -78.2356 60° Northeast 424 488 40,000  Level Washington Center
Fri 02:32:26 PM 37.9056 -78.1814 21° North 369 425 40,000  Level Washington Center
Fri 02:33:27 PM 38.0314 -78.1436 13° North 380 437 40,000  Level Washington Center
Fri 02:34:28 PM 38.1333 -78.0575 34° Northeast 433 498 40,000  Level Washington Center
Fri 02:35:26 PM 38.1717 -77.9133 71° East 411 473 40,000  Level Washington Center
Fri 02:36:26 PM 38.1578 -77.7678 97° East 375 432 40,000  Level Washington Center
Fri 02:37:27 PM 38.1456 -77.6328 97° East 375 432 40,000  Level Washington Center
Fri 02:38:27 PM 38.1308 -77.5003 98° East 380 437 40,000  Level Washington Center
Fri 02:39:26 PM 38.1225 -77.3733 95° East 375 432 40,000  Level Washington Center
Fri 02:40:26 PM 38.1139 -77.2411 95° East 369 425 40,000  Level Washington Center
Fri 02:41:27 PM 38.1939 -77.1794 31° Northeast 288 331 40,000 -885 Level Washington Center
Fri 02:42:28 PM 38.2958 -77.2161 344° North 288 331 38,200 -2,033 Descending Washington Center
Fri 02:43:28 PM 38.4164 -77.2400 351° North 349 402 35,900 -2,390 Descending Washington Center
Fri 02:44:26 PM 38.5322 -77.1575 29° Northeast 419 482 33,500 -2,370 Descending Washington Center
Fri 02:45:27 PM 38.6253 -77.0400 45° Northeast 439 505 31,200 -2,164 Descending Washington Center
Fri 02:46:28 PM 38.7225 -76.9275 42° Northeast 444 511 29,100 -2,033 Descending Washington Center
Fri 02:47:28 PM 38.8239 -76.8014 44° Northeast 475 547 27,100 -2,034 Descending Washington Center
Fri 02:48:26 PM 38.9250 -76.6775 44° Northeast 487 560 25,100 -1,563 Descending Washington Center
Fri 02:49:27 PM 39.0219 -76.5561 44° Northeast 493 567 24,000 -541 Descending Washington Center
Fri 02:50:28 PM 39.1189 -76.4397 43° Northeast 481 554 24,000  Level Washington Center
Fri 02:51:26 PM 39.2156 -76.3203 44° Northeast 476 548 24,000  Level Washington Center
Fri 02:52:26 PM 39.3142 -76.1978 44° Northeast 476 548 24,000 -600 Level Washington Center
Fri 02:53:26 PM 39.4042 -76.0911 42° Northeast 489 563 22,800 -2,033 Descending Washington Center
Fri 02:54:27 PM 39.4942 -75.9789 44° Northeast 468 539 19,900 -2,705 Descending Washington Center
Fri 02:55:28 PM 39.5800 -75.8717 44° Northeast 444 511 17,300 -2,331 Descending Washington Center
Fri 02:57:22 PM 39.7500 -75.6667 43° Northeast 383 441 13,100 -1,593 Descending Philadelphia TRACON
Fri 02:58:10 PM 39.8167 -75.5833 44° Northeast 391 450 13,000 -56 Descending Philadelphia TRACON
Fri 02:59:10 PM 39.9000 -75.5000 37° Northeast 387 445 13,000  Level Philadelphia TRACON
Fri 03:00:10 PM 39.9833 -75.4333 32° Northeast 382 440 13,000  Level Philadelphia TRACON
Fri 03:01:10 PM 40.0667 -75.3500 37° Northeast 390 449 13,000 -48 Level Philadelphia TRACON
Fri 03:02:16 PM 40.1667 -75.2500 37° Northeast 389 448 12,900 -955 Descending Philadelphia TRACON
Fri 03:03:22 PM 40.2500 -75.1667 37° Northeast 320 368 10,900 -1,816 Descending Philadelphia TRACON
Fri 03:04:48 PM 40.3500 -75.0667 37° Northeast 313 360 8,300 -1,592 Descending New York TRACON
Fri 03:05:49 PM 40.4167 -74.9833 44° Northeast 298 343 7,000 -942 Descending New York TRACON
Fri 03:06:49 PM 40.4667 -74.9167 45° Northeast 257 296 6,400 -900 Descending New York TRACON
Fri 03:07:49 PM 40.5167 -74.8667 37° Northeast 246 283 5,200 -1,200 Descending New York TRACON
Fri 03:08:49 PM 40.5667 -74.8500 14° North 237 273 4,000 -650 Descending New York TRACON
Fri 03:09:49 PM 40.6167 -74.8000 37° Northeast 209 241 3,900 -800 Descending New York TRACON
Fri 03:10:49 PM 40.6500 -74.7500 49° Northeast 209 241 2,400 -1,000 Descending New York TRACON
Fri 03:11:49 PM 40.6667 -74.6833 72° East 200 230 1,900 -200 Descending New York TRACON
Fri 03:12:49 PM 40.6500 -74.6000 105° East 188 216 2,000 -50 Climbing New York TRACON
Fri 03:13:49 PM 40.6500 -74.5500 90° East 165 190 1,800 -150 Descending New York TRACON
Fri 03:14:49 PM 40.6833 -74.5167 37° Northeast 155 178 1,700  Descending New York TRACON
Fri 03:15:49 PM 40.7167 -74.4833 37° Northeast 153 176 1,800 -211 Climbing New York TRACON
Fri 03:16:43 PM 40.7500 -74.4667 21° North 133 153 1,300 -650 Descending New York TRACON
Fri 03:17:49 PM 40.7833 -74.4333 37° Northeast 122 140 500 -727 Descending New York TRACON
Fri 03:19:00 PM 40.7833 -74.4000 62° Northeast  Level FlightAware Approximate
Fri 03:26:00 PM 40.7993 -74.4149 62° Northeast  Level Estimated
Fri 03:27:00 PM 40.7993 -74.4149 62° Northeast  Level Estimated

Login

Don't have an account? Register now (free) for customized features, flight alerts, and more!